createdAt,value
2023-04-14T00:00:17.356Z,26.76
2023-04-14T00:01:17.378Z,26.77
2023-04-14T00:02:17.423Z,26.86
2023-04-14T00:03:17.630Z,26.71
2023-04-14T00:04:17.555Z,26.65
2023-04-14T00:05:17.382Z,26.74
2023-04-14T00:06:17.367Z,26.76
2023-04-14T00:07:17.365Z,26.83
2023-04-14T00:08:17.359Z,26.76
2023-04-14T00:09:17.386Z,26.67
2023-04-14T00:10:17.406Z,26.64
2023-04-14T00:11:17.437Z,26.79
2023-04-14T00:12:17.458Z,26.81
2023-04-14T00:13:17.498Z,26.87
2023-04-14T00:14:17.523Z,26.72
2023-04-14T00:15:17.532Z,26.61
2023-04-14T00:16:17.548Z,26.77
2023-04-14T00:17:17.623Z,26.81
2023-04-14T00:18:17.596Z,26.83
2023-04-14T00:19:17.633Z,26.72
2023-04-14T00:20:17.692Z,26.66
2023-04-14T00:21:17.688Z,26.71
2023-04-14T00:22:17.700Z,26.81
2023-04-14T00:23:17.700Z,26.82
2023-04-14T00:24:17.715Z,26.86
2023-04-14T00:25:17.706Z,26.74
2023-04-14T00:26:17.719Z,26.70
2023-04-14T00:27:17.729Z,26.74
2023-04-14T00:28:17.712Z,26.81
2023-04-14T00:29:17.720Z,26.83
2023-04-14T00:30:17.744Z,26.68
2023-04-14T00:31:17.817Z,26.66
2023-04-14T00:32:17.731Z,26.73
2023-04-14T00:33:17.743Z,26.74
2023-04-14T00:34:17.744Z,26.83
2023-04-14T00:35:17.752Z,26.88
2023-04-14T00:36:17.760Z,26.70
2023-04-14T00:37:17.753Z,26.68
2023-04-14T00:38:17.760Z,26.79
2023-04-14T00:39:17.776Z,26.84
2023-04-14T00:40:17.756Z,26.83
2023-04-14T00:41:17.783Z,26.78
2023-04-14T00:42:17.785Z,26.63
2023-04-14T00:43:17.800Z,26.74
2023-04-14T00:44:17.773Z,26.72
2023-04-14T00:45:17.773Z,26.82
2023-04-14T00:46:17.800Z,26.88
2023-04-14T00:47:17.810Z,26.71
2023-04-14T00:48:17.792Z,26.66
2023-04-14T00:49:17.828Z,26.73
2023-04-14T00:50:17.832Z,26.84
2023-04-14T00:51:17.875Z,26.81
2023-04-14T00:52:17.894Z,26.75
2023-04-14T00:53:17.940Z,26.70
2023-04-14T00:54:17.939Z,26.63
2023-04-14T00:55:17.976Z,26.78
2023-04-14T00:56:18.024Z,26.78
2023-04-14T00:57:18.037Z,26.81
2023-04-14T00:58:18.052Z,26.70
2023-04-14T00:59:18.074Z,26.64
2023-04-14T01:00:18.096Z,26.74
2023-04-14T01:01:18.156Z,26.74
2023-04-14T01:02:18.222Z,26.80
2023-04-14T01:03:18.284Z,26.70
2023-04-14T01:04:18.220Z,26.61
2023-04-14T01:05:18.201Z,26.65
2023-04-14T01:06:18.159Z,26.74
2023-04-14T01:07:18.158Z,26.76
2023-04-14T01:08:18.162Z,26.74
2023-04-14T01:09:18.161Z,26.66
2023-04-14T01:10:18.182Z,26.66
2023-04-14T01:11:18.171Z,26.73
2023-04-14T01:12:18.168Z,26.77
2023-04-14T01:13:18.180Z,26.79
2023-04-14T01:14:18.176Z,26.65
2023-04-14T01:15:18.164Z,26.60
2023-04-14T01:16:18.214Z,26.61
2023-04-14T01:17:18.180Z,26.72
2023-04-14T01:18:18.214Z,26.74
2023-04-14T01:19:18.170Z,26.74
2023-04-14T01:20:18.173Z,26.56
2023-04-14T01:21:18.159Z,26.53
2023-04-14T01:22:18.153Z,26.65
2023-04-14T01:23:18.151Z,26.75
2023-04-14T01:24:18.159Z,26.78
2023-04-14T01:25:18.159Z,26.66
2023-04-14T01:26:18.168Z,26.58
2023-04-14T01:27:18.170Z,26.70
2023-04-14T01:28:18.171Z,26.77
2023-04-14T01:29:18.170Z,26.77
2023-04-14T01:30:18.179Z,26.70
2023-04-14T01:31:18.230Z,26.58
2023-04-14T01:32:18.176Z,26.63
2023-04-14T01:33:18.184Z,26.69
2023-04-14T01:34:18.182Z,26.74
2023-04-14T01:35:18.171Z,26.78
2023-04-14T01:36:18.181Z,26.63
2023-04-14T01:37:18.176Z,26.62
2023-04-14T01:38:18.196Z,26.68
2023-04-14T01:39:18.183Z,26.74
2023-04-14T01:40:18.173Z,26.76
2023-04-14T01:41:18.182Z,26.73
2023-04-14T01:42:18.187Z,26.62
2023-04-14T01:43:18.203Z,26.68
2023-04-14T01:44:18.203Z,26.72
2023-04-14T01:45:18.201Z,26.75
2023-04-14T01:46:18.292Z,26.81
2023-04-14T01:47:18.229Z,26.68
2023-04-14T01:48:18.222Z,26.63
2023-04-14T01:49:18.285Z,26.62
2023-04-14T01:50:18.250Z,26.74
2023-04-14T01:51:18.240Z,26.75
2023-04-14T01:52:18.250Z,26.75
2023-04-14T01:53:18.236Z,26.63
2023-04-14T01:54:18.273Z,26.64
2023-04-14T01:55:18.298Z,26.66
2023-04-14T01:56:18.334Z,26.70
2023-04-14T01:57:18.349Z,26.75
2023-04-14T01:58:18.380Z,26.66
2023-04-14T01:59:18.426Z,26.56
2023-04-14T02:00:18.461Z,26.66
2023-04-14T02:01:18.501Z,26.73
2023-04-14T02:02:18.632Z,26.69
2023-04-14T02:03:18.701Z,26.73
2023-04-14T02:04:18.633Z,26.60
2023-04-14T02:05:18.606Z,26.64
2023-04-14T02:06:18.652Z,26.65
2023-04-14T02:07:18.671Z,26.73
2023-04-14T02:08:18.700Z,26.75
2023-04-14T02:09:18.722Z,26.57
2023-04-14T02:10:18.755Z,26.52
2023-04-14T02:11:18.793Z,26.61
2023-04-14T02:12:18.811Z,26.72
2023-04-14T02:13:18.834Z,26.72
2023-04-14T02:14:18.866Z,26.66
2023-04-14T02:15:18.906Z,26.57
2023-04-14T02:16:19.032Z,26.59
2023-04-14T02:17:19.010Z,26.64
2023-04-14T02:18:18.978Z,26.67
2023-04-14T02:19:19.013Z,26.73
2023-04-14T02:20:19.026Z,26.54
2023-04-14T02:21:19.062Z,26.52
2023-04-14T02:22:19.094Z,26.55
2023-04-14T02:23:19.109Z,26.67
2023-04-14T02:24:19.136Z,26.70
2023-04-14T02:25:19.164Z,26.74
2023-04-14T02:26:19.183Z,26.60
2023-04-14T02:27:19.223Z,26.56
2023-04-14T02:28:19.242Z,26.70
2023-04-14T02:29:19.259Z,26.70
2023-04-14T02:30:19.256Z,26.76
2023-04-14T02:31:19.281Z,26.63
2023-04-14T02:32:19.309Z,26.51
2023-04-14T02:33:19.242Z,26.64
2023-04-14T02:34:19.252Z,26.64
2023-04-14T02:35:19.239Z,26.69
2023-04-14T02:36:19.256Z,26.60
2023-04-14T02:37:19.258Z,26.55
2023-04-14T02:38:19.247Z,26.53
2023-04-14T02:39:19.262Z,26.61
2023-04-14T02:40:19.255Z,26.68
2023-04-14T02:41:19.247Z,26.70
2023-04-14T02:42:19.242Z,26.67
2023-04-14T02:43:19.253Z,26.53
2023-04-14T02:44:19.240Z,26.56
2023-04-14T02:45:19.256Z,26.66
2023-04-14T02:46:19.266Z,26.72
2023-04-14T02:47:19.300Z,26.75
2023-04-14T02:48:19.243Z,26.57
2023-04-14T02:49:19.252Z,26.53
2023-04-14T02:50:19.247Z,26.65
2023-04-14T02:51:19.265Z,26.67
2023-04-14T02:52:19.253Z,26.69
2023-04-14T02:53:19.258Z,26.52
2023-04-14T02:54:19.250Z,26.54
2023-04-14T02:55:19.265Z,26.56
2023-04-14T02:56:19.258Z,26.67
2023-04-14T02:57:19.271Z,26.67
2023-04-14T02:58:19.265Z,26.69
2023-04-14T02:59:19.269Z,26.57
2023-04-14T03:00:19.271Z,26.48
2023-04-14T03:01:19.308Z,26.59
2023-04-14T03:02:19.452Z,26.63
2023-04-14T03:03:19.343Z,26.67
2023-04-14T03:04:19.298Z,26.60
2023-04-14T03:05:19.286Z,26.43
2023-04-14T03:06:19.278Z,26.55
2023-04-14T03:07:19.286Z,26.65
2023-04-14T03:08:19.294Z,26.67
2023-04-14T03:09:19.287Z,26.59
2023-04-14T03:10:19.286Z,26.57
2023-04-14T03:11:19.303Z,26.49
2023-04-14T03:12:19.331Z,26.57
2023-04-14T03:13:19.343Z,26.61
2023-04-14T03:14:19.321Z,26.69
2023-04-14T03:15:19.355Z,26.55
2023-04-14T03:16:19.412Z,26.53
2023-04-14T03:17:19.442Z,26.50
2023-04-14T03:18:19.452Z,26.64
2023-04-14T03:19:19.482Z,26.67
2023-04-14T03:20:19.517Z,26.70
2023-04-14T03:21:19.554Z,26.55
2023-04-14T03:22:19.586Z,26.48
2023-04-14T03:23:19.629Z,26.58
2023-04-14T03:24:19.653Z,26.61
2023-04-14T03:25:19.680Z,26.66
2023-04-14T03:26:19.710Z,26.62
2023-04-14T03:27:19.758Z,26.52
2023-04-14T03:28:19.769Z,26.53
2023-04-14T03:29:19.793Z,26.61
2023-04-14T03:30:19.822Z,26.64
2023-04-14T03:31:19.864Z,26.67
2023-04-14T03:32:19.891Z,26.54
2023-04-14T03:33:19.934Z,26.44
2023-04-14T03:34:19.943Z,26.54
2023-04-14T03:35:19.972Z,26.59
2023-04-14T03:36:20.006Z,26.64
2023-04-14T03:37:20.044Z,26.58
2023-04-14T03:38:20.073Z,26.46
2023-04-14T03:39:20.119Z,26.51
2023-04-14T03:40:20.130Z,26.58
2023-04-14T03:41:20.158Z,26.60
2023-04-14T03:42:20.197Z,26.65
2023-04-14T03:43:20.224Z,26.50
2023-04-14T03:44:20.258Z,26.48
2023-04-14T03:45:20.280Z,26.52
2023-04-14T03:46:20.327Z,26.61
2023-04-14T03:47:20.389Z,26.64
2023-04-14T03:48:20.361Z,26.65
2023-04-14T03:49:20.416Z,26.58
2023-04-14T03:50:20.445Z,26.54
2023-04-14T03:51:20.489Z,26.62
2023-04-14T03:52:20.515Z,26.65
2023-04-14T03:53:20.534Z,26.68
2023-04-14T03:54:20.545Z,26.53
2023-04-14T03:55:20.542Z,26.44
2023-04-14T03:56:20.582Z,26.54
2023-04-14T03:57:20.567Z,26.58
2023-04-14T03:58:20.577Z,26.61
2023-04-14T03:59:20.600Z,26.68
2023-04-14T04:00:20.574Z,26.54
2023-04-14T04:01:20.578Z,26.55
2023-04-14T04:02:20.656Z,26.57
2023-04-14T04:03:20.834Z,26.59
2023-04-14T04:04:20.715Z,26.68
2023-04-14T04:05:20.614Z,26.66
2023-04-14T04:06:20.623Z,26.63
2023-04-14T04:07:20.631Z,26.57
2023-04-14T04:08:20.632Z,26.57
2023-04-14T04:09:20.634Z,26.65
2023-04-14T04:10:20.653Z,26.73
2023-04-14T04:11:20.659Z,26.59
2023-04-14T04:12:20.672Z,26.58
2023-04-14T04:13:20.698Z,26.61
2023-04-14T04:14:20.747Z,26.69
2023-04-14T04:15:20.776Z,26.71
2023-04-14T04:16:20.854Z,26.69
2023-04-14T04:17:20.888Z,26.60
2023-04-14T04:18:20.888Z,26.46
2023-04-14T04:19:20.916Z,26.50
2023-04-14T04:20:20.964Z,26.62
2023-04-14T04:21:20.997Z,26.63
2023-04-14T04:22:21.066Z,26.68
2023-04-14T04:23:21.081Z,26.52
2023-04-14T04:24:21.112Z,26.54
2023-04-14T04:25:21.151Z,26.60
2023-04-14T04:26:21.185Z,26.60
2023-04-14T04:27:28.086Z,26.62
2023-04-14T04:28:21.214Z,26.67
2023-04-14T04:29:21.210Z,26.62
2023-04-14T04:30:21.227Z,26.52
2023-04-14T04:31:21.243Z,26.56
2023-04-14T04:32:21.306Z,26.62
2023-04-14T04:33:21.250Z,26.64
2023-04-14T04:34:21.248Z,26.65
2023-04-14T04:35:21.264Z,26.57
2023-04-14T04:36:21.254Z,26.51
2023-04-14T04:37:21.264Z,26.59
2023-04-14T04:38:21.249Z,26.57
2023-04-14T04:39:21.251Z,26.67
2023-04-14T04:40:21.257Z,26.69
2023-04-14T04:41:21.256Z,26.63
2023-04-14T04:42:21.265Z,26.53
2023-04-14T04:43:21.272Z,26.64
2023-04-14T04:44:21.279Z,26.62
2023-04-14T04:45:21.299Z,26.70
2023-04-14T04:46:21.564Z,26.70
2023-04-14T04:47:21.435Z,26.63
2023-04-14T04:48:21.433Z,26.61
2023-04-14T04:49:21.476Z,26.59
2023-04-14T04:50:21.510Z,26.63
2023-04-14T04:51:21.550Z,26.73
2023-04-14T04:52:21.606Z,26.59
2023-04-14T04:53:21.627Z,26.53
2023-04-14T04:54:21.691Z,26.55
2023-04-14T04:55:21.692Z,26.60
2023-04-14T04:56:21.737Z,26.83
2023-04-14T04:57:21.776Z,26.97
2023-04-14T04:58:21.836Z,26.85
2023-04-14T04:59:21.840Z,26.67
2023-04-14T05:00:21.891Z,26.64
2023-04-14T05:01:21.931Z,26.71
2023-04-14T05:02:22.114Z,26.79
2023-04-14T05:03:22.091Z,26.80
2023-04-14T05:04:22.144Z,26.68
2023-04-14T05:05:22.078Z,26.58
2023-04-14T05:06:22.126Z,26.69
2023-04-14T05:07:22.162Z,26.71
2023-04-14T05:08:22.203Z,26.72
2023-04-14T05:09:22.227Z,26.71
2023-04-14T05:10:22.224Z,26.62
2023-04-14T05:11:22.224Z,26.62
2023-04-14T05:12:22.228Z,26.63
2023-04-14T05:13:22.234Z,26.71
2023-04-14T05:14:22.250Z,26.69
2023-04-14T05:15:22.237Z,26.72
2023-04-14T05:16:22.369Z,26.63
2023-04-14T05:17:22.289Z,26.52
2023-04-14T05:18:22.284Z,26.58
2023-04-14T05:19:22.253Z,26.68
2023-04-14T05:20:22.253Z,26.68
2023-04-14T05:21:22.314Z,26.61
2023-04-14T05:22:22.268Z,26.54
2023-04-14T05:23:22.264Z,26.56
2023-04-14T05:24:22.281Z,26.63
2023-04-14T05:25:22.272Z,26.65
2023-04-14T05:26:48.172Z,26.67
2023-04-14T05:27:23.311Z,26.55
2023-04-14T05:28:22.272Z,26.58
2023-04-14T05:29:22.257Z,26.59
2023-04-14T05:30:22.276Z,26.63
2023-04-14T05:31:22.339Z,26.66
2023-04-14T05:32:22.390Z,26.73
2023-04-14T05:33:22.339Z,26.63
2023-04-14T05:34:22.280Z,26.94
2023-04-14T05:35:22.322Z,27.30
2023-04-14T05:36:22.277Z,27.74
2023-04-14T05:37:22.288Z,28.73
2023-04-14T05:38:22.275Z,29.01
2023-04-14T05:39:22.260Z,29.34
2023-04-14T05:40:22.267Z,29.48
2023-04-14T05:41:22.294Z,29.84
2023-04-14T05:42:22.260Z,30.26
2023-04-14T05:43:22.266Z,30.43
2023-04-14T05:44:22.281Z,30.85
2023-04-14T05:45:22.249Z,30.97
2023-04-14T05:46:22.313Z,31.00
2023-04-14T05:47:22.265Z,31.29
2023-04-14T05:48:22.255Z,31.46
2023-04-14T05:49:22.299Z,31.79
2023-04-14T05:50:22.305Z,31.80
2023-04-14T05:51:22.239Z,31.93
2023-04-14T05:52:22.232Z,32.28
2023-04-14T05:53:22.210Z,32.38
2023-04-14T05:54:22.229Z,32.59
2023-04-14T05:55:22.195Z,33.00
2023-04-14T05:56:22.211Z,33.01
2023-04-14T05:57:22.601Z,33.31
2023-04-14T05:58:22.182Z,33.18
2023-04-14T05:59:22.144Z,33.46
2023-04-14T06:00:22.152Z,33.41
2023-04-14T06:01:22.118Z,33.54
2023-04-14T06:02:22.776Z,33.65
2023-04-14T06:03:22.302Z,33.81
2023-04-14T06:04:22.299Z,33.87
2023-04-14T06:05:22.144Z,34.05
2023-04-14T06:06:22.134Z,34.12
2023-04-14T06:07:22.063Z,34.09
2023-04-14T06:08:22.037Z,34.23
2023-04-14T06:09:22.039Z,34.32
2023-04-14T06:10:22.692Z,34.34
2023-04-14T06:11:21.986Z,34.51
2023-04-14T06:12:22.015Z,34.50
2023-04-14T06:13:21.984Z,34.63
2023-04-14T06:14:21.980Z,34.79
2023-04-14T06:15:21.983Z,34.88
2023-04-14T06:16:22.020Z,34.97
2023-04-14T06:17:21.937Z,34.99
2023-04-14T06:18:21.923Z,35.09
2023-04-14T06:19:21.927Z,34.96
2023-04-14T06:20:21.974Z,35.08
2023-04-14T06:21:21.874Z,35.20
2023-04-14T06:22:21.886Z,35.06
2023-04-14T06:23:21.872Z,35.17
2023-04-14T06:24:21.921Z,35.19
2023-04-14T06:25:21.837Z,35.22
2023-04-14T06:26:21.850Z,35.33
2023-04-14T06:27:21.760Z,35.37
2023-04-14T06:28:21.752Z,35.40
2023-04-14T06:29:21.760Z,35.39
2023-04-14T06:30:21.724Z,35.39
2023-04-14T06:31:21.813Z,35.50
2023-04-14T06:32:21.925Z,35.39
2023-04-14T06:33:21.900Z,35.52
2023-04-14T06:34:21.952Z,35.50
2023-04-14T06:35:32.426Z,35.57
2023-04-14T06:36:21.979Z,35.66
2023-04-14T06:37:21.927Z,35.85
2023-04-14T06:38:21.899Z,35.75
2023-04-14T06:39:21.882Z,35.87
2023-04-14T06:40:21.918Z,35.96
2023-04-14T06:41:21.922Z,36.51
2023-04-14T06:42:21.847Z,36.86
2023-04-14T06:43:21.816Z,36.57
2023-04-14T06:44:21.831Z,36.28
2023-04-14T06:45:21.799Z,36.01
2023-04-14T06:46:21.915Z,35.67
2023-04-14T06:47:21.889Z,35.10
2023-04-14T06:48:21.914Z,34.54
2023-04-14T06:49:21.966Z,34.10
2023-04-14T06:50:22.004Z,33.83
2023-04-14T06:51:22.063Z,33.47
2023-04-14T06:52:22.115Z,33.10
2023-04-14T06:53:22.161Z,33.04
2023-04-14T06:54:22.195Z,32.76
2023-04-14T06:55:22.220Z,32.34
2023-04-14T06:56:22.272Z,31.81
2023-04-14T06:57:22.322Z,31.44
2023-04-14T06:58:22.416Z,31.62
2023-04-14T06:59:22.381Z,31.70
2023-04-14T07:00:22.364Z,31.56
2023-04-14T07:01:22.397Z,31.46
2023-04-14T07:02:22.434Z,30.97
2023-04-14T07:03:22.386Z,30.93
2023-04-14T07:04:22.373Z,31.17
2023-04-14T07:05:22.331Z,31.04
2023-04-14T07:06:22.339Z,30.85
2023-04-14T07:07:22.339Z,30.53
2023-04-14T07:08:22.337Z,30.53
2023-04-14T07:09:22.382Z,30.60
2023-04-14T07:10:22.348Z,30.62
2023-04-14T07:11:22.344Z,30.59
2023-04-14T07:12:22.378Z,30.11
2023-04-14T07:13:22.403Z,30.16
2023-04-14T07:14:22.337Z,30.36
2023-04-14T07:15:22.349Z,30.45
2023-04-14T07:16:22.398Z,30.17
2023-04-14T07:17:22.394Z,30.08
2023-04-14T07:18:22.354Z,29.93
2023-04-14T07:19:22.340Z,30.10
2023-04-14T07:20:22.324Z,30.10
2023-04-14T07:21:22.311Z,29.94
2023-04-14T07:22:22.312Z,29.82
2023-04-14T07:23:22.328Z,29.77
2023-04-14T07:24:22.315Z,29.67
2023-04-14T07:25:22.300Z,29.81
2023-04-14T07:26:22.309Z,29.87
2023-04-14T07:27:22.301Z,29.87
2023-04-14T07:28:22.265Z,29.88
2023-04-14T07:29:22.269Z,29.85
2023-04-14T07:30:22.258Z,29.84
2023-04-14T07:31:22.350Z,29.83
2023-04-14T07:32:22.271Z,29.77
2023-04-14T07:33:22.392Z,29.75
2023-04-14T07:34:23.324Z,29.74
2023-04-14T07:35:22.212Z,29.73
2023-04-14T07:36:22.206Z,29.70
2023-04-14T07:37:22.265Z,30.19
2023-04-14T07:38:22.187Z,31.19
2023-04-14T07:39:22.560Z,32.30
2023-04-14T07:40:22.203Z,33.26
2023-04-14T07:41:22.704Z,32.71
2023-04-14T07:42:22.187Z,32.60
2023-04-14T07:43:22.195Z,32.33
2023-04-14T07:44:22.277Z,31.97
2023-04-14T07:45:22.310Z,31.36
2023-04-14T07:46:22.313Z,30.98
2023-04-14T07:47:22.304Z,30.83
2023-04-14T07:48:22.268Z,30.70
2023-04-14T07:49:22.270Z,30.52
2023-04-14T07:50:22.265Z,30.27
2023-04-14T07:51:22.278Z,30.01
2023-04-14T07:52:22.269Z,29.96
2023-04-14T07:53:22.277Z,30.35
2023-04-14T07:54:22.361Z,30.75
2023-04-14T07:55:22.265Z,31.16
2023-04-14T07:56:22.293Z,31.32
2023-04-14T07:57:22.250Z,31.54
2023-04-14T07:58:24.290Z,31.36
2023-04-14T07:59:22.252Z,31.58
2023-04-14T08:00:22.253Z,31.83
2023-04-14T08:01:22.285Z,32.04
2023-04-14T08:02:22.813Z,32.21
2023-04-14T08:03:22.337Z,32.33
2023-04-14T08:04:22.362Z,32.31
2023-04-14T08:05:22.257Z,32.27
2023-04-14T08:06:22.216Z,32.41
2023-04-14T08:07:22.225Z,32.65
2023-04-14T08:08:22.205Z,32.92
2023-04-14T08:09:22.175Z,32.87
2023-04-14T08:10:22.197Z,33.00
2023-04-14T08:11:22.209Z,33.00
2023-04-14T08:12:22.232Z,33.29
2023-04-14T08:13:22.138Z,33.19
2023-04-14T08:14:22.211Z,33.37
2023-04-14T08:15:22.135Z,33.43
2023-04-14T08:16:22.204Z,33.74
2023-04-14T08:17:22.196Z,34.00
2023-04-14T08:18:22.130Z,34.28
2023-04-14T08:19:22.090Z,34.25
2023-04-14T08:20:22.128Z,34.42
2023-04-14T08:21:22.097Z,34.41
2023-04-14T08:22:22.046Z,34.44
2023-04-14T08:23:22.097Z,34.58
2023-04-14T08:24:22.014Z,34.86
2023-04-14T08:25:21.986Z,34.97
2023-04-14T08:26:21.972Z,34.90
2023-04-14T08:27:21.946Z,34.77
2023-04-14T08:28:21.954Z,34.99
2023-04-14T08:29:21.930Z,34.99
2023-04-14T08:30:21.944Z,35.03
2023-04-14T08:31:21.920Z,35.29
2023-04-14T08:32:21.901Z,35.41
2023-04-14T08:33:21.839Z,35.22
2023-04-14T08:34:28.562Z,31.50
2023-04-14T08:35:37.306Z,29.20
2023-04-14T08:36:22.826Z,28.89
2023-04-14T08:37:21.837Z,29.49
2023-04-14T08:38:21.853Z,28.47
2023-04-14T08:39:21.907Z,28.84
2023-04-14T08:40:21.912Z,28.63
2023-04-14T08:41:21.952Z,28.20
2023-04-14T08:42:21.967Z,28.39
2023-04-14T08:43:22.087Z,28.04
2023-04-14T08:44:22.066Z,28.08
2023-04-14T08:45:22.102Z,28.05
2023-04-14T08:46:22.247Z,29.42
2023-04-14T08:47:22.212Z,30.54
2023-04-14T08:48:24.284Z,31.84
2023-04-14T08:49:22.238Z,31.96
2023-04-14T08:50:22.289Z,32.24
2023-04-14T08:51:22.286Z,32.68
2023-04-14T08:52:22.340Z,32.87
2023-04-14T08:53:22.313Z,32.90
2023-04-14T08:54:22.317Z,32.99
2023-04-14T08:55:22.398Z,32.99
2023-04-14T08:56:22.349Z,33.23
2023-04-14T08:57:22.360Z,33.32
2023-04-14T08:58:22.328Z,33.52
2023-04-14T08:59:22.341Z,33.95
2023-04-14T09:00:22.328Z,34.00
2023-04-14T09:01:22.376Z,34.39
2023-04-14T09:02:22.442Z,34.49
2023-04-14T09:03:22.381Z,34.56
2023-04-14T09:04:22.468Z,34.75
2023-04-14T09:05:22.304Z,34.86
2023-04-14T09:06:22.272Z,35.12
2023-04-14T09:07:22.275Z,35.13
2023-04-14T09:08:22.252Z,35.09
2023-04-14T09:09:22.247Z,35.17
2023-04-14T09:10:22.325Z,35.38
2023-04-14T09:11:22.202Z,35.53
2023-04-14T09:12:22.194Z,35.63
2023-04-14T09:13:22.184Z,35.46
2023-04-14T09:14:22.149Z,35.57
2023-04-14T09:15:22.178Z,35.72
2023-04-14T09:16:22.150Z,35.70
2023-04-14T09:17:22.147Z,35.69
2023-04-14T09:18:22.089Z,35.95
2023-04-14T09:19:22.052Z,35.86
2023-04-14T09:20:38.219Z,36.02
2023-04-14T09:21:28.742Z,35.88
2023-04-14T09:22:22.002Z,36.11
2023-04-14T09:23:21.997Z,37.43
2023-04-14T09:24:21.959Z,37.14
2023-04-14T09:25:22.434Z,36.97
2023-04-14T09:26:21.927Z,36.82
2023-04-14T09:27:21.964Z,36.63
2023-04-14T09:28:22.262Z,36.68
2023-04-14T09:29:22.010Z,36.41
2023-04-14T09:30:22.009Z,36.27
2023-04-14T09:31:21.944Z,35.20
2023-04-14T09:32:21.929Z,34.75
2023-04-14T09:34:22.006Z,34.79
2023-04-14T09:35:22.055Z,35.07
2023-04-14T09:36:22.075Z,34.73
2023-04-14T09:37:21.869Z,34.18
2023-04-14T09:38:21.853Z,34.46
2023-04-14T09:39:21.879Z,34.54
2023-04-14T09:40:22.281Z,34.15
2023-04-14T09:41:21.909Z,34.21
2023-04-14T09:42:21.828Z,34.39
2023-04-14T09:43:21.776Z,33.97
2023-04-14T09:44:21.734Z,34.22
2023-04-14T09:45:21.730Z,34.01
2023-04-14T09:46:21.849Z,33.82
2023-04-14T09:47:22.757Z,33.73
2023-04-14T09:48:21.672Z,34.09
2023-04-14T09:49:21.653Z,34.13
2023-04-14T09:50:21.653Z,34.24
2023-04-14T09:51:21.644Z,34.20
2023-04-14T09:52:21.638Z,34.19
2023-04-14T09:53:21.685Z,34.11
2023-04-14T09:54:21.730Z,34.24
2023-04-14T09:55:21.667Z,34.66
2023-04-14T09:56:21.767Z,34.60
2023-04-14T09:57:21.727Z,34.80
2023-04-14T09:58:22.231Z,34.54
2023-04-14T09:59:21.749Z,34.64
2023-04-14T10:00:21.761Z,34.90
2023-04-14T10:01:21.850Z,35.08
2023-04-14T10:02:21.871Z,34.96
2023-04-14T10:03:22.168Z,34.89
2023-04-14T10:04:23.920Z,34.71
2023-04-14T10:05:21.929Z,34.85
2023-04-14T10:06:21.915Z,35.15
2023-04-14T10:07:21.913Z,35.27
2023-04-14T10:08:21.926Z,35.13
2023-04-14T10:09:21.952Z,34.96
2023-04-14T10:10:21.891Z,34.74
2023-04-14T10:11:21.864Z,35.31
2023-04-14T10:12:21.850Z,35.39
2023-04-14T10:13:21.880Z,35.33
2023-04-14T10:14:21.790Z,35.34
2023-04-14T10:15:21.768Z,35.12
2023-04-14T10:16:21.834Z,34.73
2023-04-14T10:17:21.752Z,35.48
2023-04-14T10:18:21.698Z,35.60
2023-04-14T10:19:21.704Z,35.57
2023-04-14T10:20:21.673Z,35.29
2023-04-14T10:21:21.968Z,35.14
2023-04-14T10:22:21.644Z,35.49
2023-04-14T10:23:21.607Z,35.69
2023-04-14T10:24:21.573Z,35.61
2023-04-14T10:25:21.557Z,35.60
2023-04-14T10:26:21.541Z,35.21
2023-04-14T10:27:21.515Z,35.14
2023-04-14T10:28:21.521Z,35.75
2023-04-14T10:29:21.481Z,35.74
2023-04-14T10:30:21.480Z,35.65
2023-04-14T10:31:21.485Z,35.22
2023-04-14T10:32:21.566Z,35.42
2023-04-14T10:33:21.477Z,35.71
2023-04-14T10:34:21.489Z,35.84
2023-04-14T10:35:21.474Z,35.83
2023-04-14T10:36:21.494Z,35.85
2023-04-14T10:37:21.461Z,35.15
2023-04-14T10:38:21.536Z,35.60
2023-04-14T10:39:21.491Z,35.39
2023-04-14T10:40:23.062Z,34.18
2023-04-14T10:41:21.420Z,33.95
2023-04-14T10:42:21.384Z,33.85
2023-04-14T10:43:21.366Z,34.01
2023-04-14T10:44:21.386Z,32.73
2023-04-14T10:45:22.290Z,30.69
2023-04-14T10:46:21.448Z,31.58
2023-04-14T10:47:21.375Z,31.88
2023-04-14T10:48:21.250Z,31.69
2023-04-14T10:49:21.243Z,31.94
2023-04-14T10:50:21.228Z,32.09
2023-04-14T10:51:21.249Z,31.88
2023-04-14T10:52:21.225Z,31.20
2023-04-14T10:53:21.219Z,31.18
2023-04-14T10:54:21.223Z,31.13
2023-04-14T10:55:21.254Z,31.10
2023-04-14T10:56:21.344Z,31.06
2023-04-14T10:57:21.256Z,30.71
2023-04-14T10:58:21.284Z,30.51
2023-04-14T10:59:21.318Z,30.40
2023-04-14T11:00:21.282Z,30.48
2023-04-14T11:01:21.390Z,30.52
2023-04-14T11:02:21.499Z,30.39
2023-04-14T11:03:21.350Z,30.20
2023-04-14T11:04:21.682Z,30.36
2023-04-14T11:05:21.374Z,30.30
2023-04-14T11:06:21.306Z,30.40
2023-04-14T11:07:21.290Z,30.54
2023-04-14T11:08:21.284Z,30.52
2023-04-14T11:09:21.286Z,30.57
2023-04-14T11:10:21.289Z,30.47
2023-04-14T11:11:21.276Z,30.53
2023-04-14T11:12:21.281Z,30.53
2023-04-14T11:13:21.246Z,30.60
2023-04-14T11:14:21.278Z,30.64
2023-04-14T11:15:21.241Z,30.60
2023-04-14T11:16:21.237Z,30.61
2023-04-14T11:17:21.893Z,30.70
2023-04-14T11:18:21.167Z,30.63
2023-04-14T11:19:21.118Z,30.67
2023-04-14T11:20:21.088Z,30.75
2023-04-14T11:21:21.061Z,30.83
2023-04-14T11:22:21.094Z,30.89
2023-04-14T11:23:21.019Z,30.79
2023-04-14T11:24:20.960Z,30.80
2023-04-14T11:25:23.672Z,30.73
2023-04-14T11:26:20.907Z,30.77
2023-04-14T11:27:21.004Z,30.92
2023-04-14T11:28:20.923Z,31.25
2023-04-14T11:29:21.242Z,32.17
2023-04-14T11:30:20.876Z,31.83
2023-04-14T11:31:23.144Z,31.77
2023-04-14T11:32:21.064Z,31.85
2023-04-14T11:33:20.967Z,31.79
2023-04-14T11:34:21.000Z,31.70
2023-04-14T11:35:20.982Z,31.56
2023-04-14T11:36:20.964Z,31.47
2023-04-14T11:37:22.707Z,31.32
2023-04-14T11:38:20.886Z,31.45
2023-04-14T11:39:20.852Z,31.62
2023-04-14T11:40:20.816Z,31.54
2023-04-14T11:41:20.775Z,31.47
2023-04-14T11:42:20.740Z,31.36
2023-04-14T11:43:22.720Z,31.24
2023-04-14T11:44:21.675Z,31.36
2023-04-14T11:45:20.664Z,31.14
2023-04-14T11:46:20.738Z,30.99
2023-04-14T11:47:20.605Z,30.95
2023-04-14T11:48:20.630Z,30.76
2023-04-14T11:49:21.795Z,30.84
2023-04-14T11:50:20.447Z,30.81
2023-04-14T11:51:20.466Z,30.75
2023-04-14T11:52:20.392Z,30.77
2023-04-14T11:53:20.363Z,30.77
2023-04-14T11:54:20.377Z,30.88
2023-04-14T11:55:20.304Z,30.87
2023-04-14T11:56:20.299Z,30.90
2023-04-14T11:57:20.228Z,30.86
2023-04-14T11:58:20.164Z,30.84
2023-04-14T11:59:20.159Z,30.82
2023-04-14T12:00:20.134Z,30.80
2023-04-14T12:01:20.138Z,30.76
2023-04-14T12:02:20.250Z,30.75
2023-04-14T12:03:20.208Z,30.72
2023-04-14T12:04:20.173Z,30.68
2023-04-14T12:05:20.094Z,30.64
2023-04-14T12:06:20.085Z,30.64
2023-04-14T12:07:20.063Z,30.60
2023-04-14T12:08:20.132Z,30.60
2023-04-14T12:09:20.101Z,30.58
2023-04-14T12:10:20.121Z,30.57
2023-04-14T12:11:20.112Z,30.56
2023-04-14T12:12:20.209Z,30.56
2023-04-14T12:13:20.092Z,30.53
2023-04-14T12:14:20.097Z,30.56
2023-04-14T12:15:20.070Z,30.62
2023-04-14T12:16:20.091Z,30.63
2023-04-14T12:17:20.135Z,30.60
2023-04-14T12:19:20.064Z,30.63
2023-04-14T12:20:20.059Z,30.65
2023-04-14T12:21:20.083Z,30.61
2023-04-14T12:22:20.092Z,30.62
2023-04-14T12:23:20.056Z,30.59
2023-04-14T12:24:20.041Z,30.52
2023-04-14T12:25:20.062Z,30.49
2023-04-14T12:26:20.024Z,30.43
2023-04-14T12:27:20.004Z,30.39
2023-04-14T12:28:19.950Z,30.32
2023-04-14T12:29:19.909Z,30.30
2023-04-14T12:30:19.874Z,30.25
2023-04-14T12:31:19.847Z,30.18
2023-04-14T12:32:19.851Z,30.15
2023-04-14T12:33:19.770Z,30.18
2023-04-14T12:34:19.734Z,30.17
2023-04-14T12:35:19.699Z,30.13
2023-04-14T12:36:19.637Z,30.14
2023-04-14T12:37:19.620Z,30.19
2023-04-14T12:38:19.577Z,30.16
2023-04-14T12:39:19.594Z,30.10
2023-04-14T12:40:19.578Z,30.08
2023-04-14T12:41:19.568Z,30.08
2023-04-14T12:42:19.614Z,30.03
2023-04-14T12:43:19.622Z,30.03
2023-04-14T12:44:19.655Z,30.02
2023-04-14T12:45:19.619Z,30.01
2023-04-14T12:46:19.642Z,29.98
2023-04-14T12:47:19.556Z,29.97
2023-04-14T12:48:19.527Z,29.90
2023-04-14T12:49:19.482Z,29.97
2023-04-14T12:50:19.465Z,29.96
2023-04-14T12:51:19.438Z,29.91
2023-04-14T12:52:19.414Z,29.91
2023-04-14T12:53:19.368Z,29.88
2023-04-14T12:54:19.336Z,29.87